createdAt,value
2018-11-06T00:00:49.374Z,92.71
2018-11-06T00:03:23.508Z,92.77
2018-11-06T00:05:51.828Z,92.51
2018-11-06T00:08:20.147Z,92.42
2018-11-06T00:10:48.532Z,92.36
2018-11-06T00:13:16.860Z,92.76
2018-11-06T00:15:45.231Z,92.97
2018-11-06T00:18:13.539Z,92.65
2018-11-06T00:20:41.852Z,92.31
2018-11-06T00:23:10.167Z,92.19
2018-11-06T00:25:38.497Z,93.03
2018-11-06T00:28:06.968Z,92.63
2018-11-06T00:30:35.295Z,92.44
2018-11-06T00:33:03.612Z,93.02
2018-11-06T00:35:31.951Z,92.80
2018-11-06T00:38:00.272Z,92.67
2018-11-06T00:40:28.638Z,92.51
2018-11-06T00:42:56.956Z,92.70
2018-11-06T00:45:25.317Z,92.72
2018-11-06T00:47:53.637Z,93.12
2018-11-06T00:50:21.975Z,92.87
2018-11-06T00:52:50.295Z,92.63
2018-11-06T00:55:18.644Z,92.34
2018-11-06T00:57:46.960Z,92.50
2018-11-06T01:00:17.556Z,92.19
2018-11-06T01:02:46.029Z,92.44
2018-11-06T01:05:15.351Z,92.21
2018-11-06T01:07:44.471Z,92.52
2018-11-06T01:10:12.801Z,92.44
2018-11-06T01:12:41.366Z,93.05
2018-11-06T01:15:13.255Z,92.92
2018-11-06T01:17:42.223Z,93.01
2018-11-06T01:20:12.931Z,92.47
2018-11-06T01:22:41.240Z,93.11
2018-11-06T01:25:10.111Z,92.87
2018-11-06T01:27:38.670Z,93.31
2018-11-06T01:30:10.324Z,92.91
2018-11-06T01:32:38.640Z,93.46
2018-11-06T01:35:07.566Z,94.33
2018-11-06T01:37:35.887Z,94.24
2018-11-06T01:40:04.426Z,93.15
2018-11-06T01:42:32.722Z,92.86
2018-11-06T01:45:01.043Z,94.29
2018-11-06T01:47:29.343Z,93.31
2018-11-06T01:49:57.735Z,94.46
2018-11-06T01:52:26.038Z,95.16
2018-11-06T01:54:54.339Z,93.75
2018-11-06T01:57:22.637Z,93.62
2018-11-06T01:59:50.947Z,94.28
2018-11-06T02:02:19.348Z,94.21
2018-11-06T02:04:47.693Z,94.59
2018-11-06T02:07:16.021Z,94.50
2018-11-06T02:09:44.360Z,94.21
2018-11-06T02:12:12.693Z,94.14
2018-11-06T02:14:41.033Z,93.78
2018-11-06T02:17:09.357Z,93.28
2018-11-06T02:19:37.728Z,93.63
2018-11-06T02:22:06.064Z,93.04
2018-11-06T02:24:34.460Z,93.23
2018-11-06T02:27:02.784Z,93.76
2018-11-06T02:29:31.112Z,94.15
2018-11-06T02:31:59.461Z,93.77
2018-11-06T02:34:27.938Z,93.53
2018-11-06T02:36:56.273Z,93.95
2018-11-06T02:39:24.593Z,94.19
2018-11-06T02:41:52.943Z,93.94
2018-11-06T02:44:21.284Z,93.92
2018-11-06T02:46:49.604Z,94.39
2018-11-06T02:49:17.997Z,94.06
2018-11-06T02:51:46.312Z,93.65
2018-11-06T02:54:14.637Z,93.50
2018-11-06T02:56:42.992Z,93.46
2018-11-06T02:59:11.316Z,93.43
2018-11-06T03:01:39.648Z,93.70
2018-11-06T03:04:07.981Z,93.38
2018-11-06T03:06:36.350Z,93.79
2018-11-06T03:09:05.680Z,92.86
2018-11-06T03:11:34.013Z,92.72
2018-11-06T03:14:02.351Z,93.14
2018-11-06T03:16:30.694Z,93.23
2018-11-06T03:18:59.017Z,92.82
2018-11-06T03:21:27.372Z,92.65
2018-11-06T03:23:55.692Z,93.07
2018-11-06T03:26:24.046Z,93.46
2018-11-06T03:28:52.388Z,93.56
2018-11-06T03:31:20.728Z,93.31
2018-11-06T03:33:49.062Z,93.90
2018-11-06T03:36:17.408Z,94.11
2018-11-06T03:38:45.732Z,93.52
2018-11-06T03:41:14.068Z,93.21
2018-11-06T03:43:42.389Z,93.31
2018-11-06T03:46:10.740Z,93.04
2018-11-06T03:48:39.069Z,93.23
2018-11-06T03:51:07.612Z,92.94
2018-11-06T03:53:35.981Z,92.73
2018-11-06T03:56:04.327Z,92.18
2018-11-06T03:58:32.668Z,92.06
2018-11-06T04:01:01.013Z,92.40
2018-11-06T04:03:29.340Z,93.07
2018-11-06T04:05:57.684Z,92.80
2018-11-06T04:08:26.009Z,93.00
2018-11-06T04:10:54.354Z,92.96
2018-11-06T04:13:22.694Z,93.26
2018-11-06T04:15:51.033Z,93.24
2018-11-06T04:18:19.360Z,93.13
2018-11-06T04:20:47.740Z,92.49
2018-11-06T04:23:16.124Z,92.42
2018-11-06T04:25:44.472Z,91.80
2018-11-06T04:28:12.825Z,91.14
2018-11-06T04:30:41.173Z,91.09
2018-11-06T04:33:09.493Z,90.01
2018-11-06T04:35:37.829Z,89.66
2018-11-06T04:38:06.184Z,89.54
2018-11-06T04:40:34.519Z,89.23
2018-11-06T04:43:02.836Z,88.45
2018-11-06T04:45:31.185Z,88.78
2018-11-06T04:47:59.496Z,87.88
2018-11-06T04:50:27.832Z,88.41
2018-11-06T04:52:56.147Z,88.21
2018-11-06T04:55:24.472Z,87.98
2018-11-06T04:57:52.788Z,88.92
2018-11-06T05:00:21.252Z,88.52
2018-11-06T05:02:49.640Z,88.25
2018-11-06T05:05:17.976Z,88.73
2018-11-06T05:07:46.283Z,88.95
2018-11-06T05:10:15.211Z,90.57
2018-11-06T05:12:43.971Z,90.62
2018-11-06T05:15:13.703Z,91.65
2018-11-06T05:17:42.033Z,91.48
2018-11-06T05:20:15.072Z,91.70
2018-11-06T05:22:44.048Z,91.13
2018-11-06T05:25:12.408Z,92.38
2018-11-06T05:27:40.711Z,92.53
2018-11-06T05:30:10.620Z,92.72
2018-11-06T05:32:39.660Z,92.40
2018-11-06T05:35:08.628Z,91.82
2018-11-06T05:37:36.979Z,91.51
2018-11-06T05:40:16.685Z,92.03
2018-11-06T05:42:45.012Z,93.09
2018-11-06T05:45:13.348Z,92.59
2018-11-06T05:47:41.665Z,91.62
2018-11-06T05:50:10.016Z,91.99
2018-11-06T05:52:38.336Z,91.53
2018-11-06T05:55:06.804Z,91.49
2018-11-06T05:57:35.128Z,92.18
2018-11-06T06:00:03.589Z,91.04
2018-11-06T06:02:31.913Z,91.30
2018-11-06T06:05:00.279Z,90.72
2018-11-06T06:07:28.612Z,90.33
2018-11-06T06:09:57.077Z,90.70
2018-11-06T06:12:25.512Z,90.85
2018-11-06T06:14:53.869Z,90.93
2018-11-06T06:17:22.260Z,90.79
2018-11-06T06:19:50.560Z,92.05
2018-11-06T06:22:18.901Z,91.43
2018-11-06T06:24:47.248Z,92.63
2018-11-06T06:27:15.588Z,92.84
2018-11-06T06:29:43.961Z,94.62
2018-11-06T06:32:12.293Z,94.45
2018-11-06T06:34:40.695Z,93.74
2018-11-06T06:37:08.984Z,92.55
2018-11-06T06:39:37.616Z,91.89
2018-11-06T06:42:06.321Z,94.54
2018-11-06T06:44:34.664Z,93.94
2018-11-06T06:47:02.983Z,95.27
2018-11-06T06:49:31.313Z,95.72
2018-11-06T06:51:59.644Z,96.34
2018-11-06T06:54:28.137Z,95.65
2018-11-06T06:56:56.297Z,95.14
2018-11-06T06:59:24.620Z,94.80
2018-11-06T07:01:52.942Z,94.90
2018-11-06T07:04:21.275Z,93.78
2018-11-06T07:06:49.963Z,94.08
2018-11-06T07:09:18.754Z,93.98
2018-11-06T07:11:47.076Z,93.37
2018-11-06T07:14:15.408Z,93.94
2018-11-06T07:16:43.715Z,94.36
2018-11-06T07:19:12.236Z,93.90
2018-11-06T07:21:40.547Z,93.55
2018-11-06T07:24:08.860Z,92.93
2018-11-06T07:26:37.180Z,93.06
2018-11-06T07:29:05.552Z,93.05
2018-11-06T07:31:33.875Z,92.18
2018-11-06T07:34:02.188Z,91.98
2018-11-06T07:36:30.575Z,91.80
2018-11-06T07:38:58.881Z,91.33
2018-11-06T07:41:27.211Z,91.00
2018-11-06T07:43:55.708Z,91.26
2018-11-06T07:46:24.011Z,90.95
2018-11-06T07:48:53.479Z,90.89
2018-11-06T07:51:22.731Z,91.52
2018-11-06T07:53:51.040Z,91.09
2018-11-06T07:56:19.383Z,90.75
2018-11-06T07:58:47.684Z,90.24
2018-11-06T08:01:16.017Z,90.03
2018-11-06T08:03:44.341Z,89.91
2018-11-06T08:06:12.787Z,90.55
2018-11-06T08:08:41.039Z,90.19
2018-11-06T08:11:09.380Z,89.79
2018-11-06T08:13:37.889Z,90.58
2018-11-06T08:16:06.309Z,91.73
2018-11-06T08:18:34.681Z,91.14
2018-11-06T08:21:03.065Z,91.19
2018-11-06T08:23:31.407Z,91.16
2018-11-06T08:25:59.703Z,90.73
2018-11-06T08:28:28.146Z,92.24
2018-11-06T08:30:56.639Z,91.85
2018-11-06T08:33:25.708Z,91.57
2018-11-06T08:35:54.045Z,92.09
2018-11-06T08:38:22.380Z,91.93
2018-11-06T08:40:50.721Z,91.33
2018-11-06T08:43:19.076Z,92.20
2018-11-06T08:45:47.401Z,92.68
2018-11-06T08:48:15.907Z,93.09
2018-11-06T08:50:44.105Z,93.69
2018-11-06T08:53:12.453Z,93.18
2018-11-06T08:55:40.813Z,92.46
2018-11-06T08:58:09.269Z,92.60
2018-11-06T09:00:37.704Z,91.68
2018-11-06T09:03:06.097Z,90.73
2018-11-06T09:05:34.504Z,90.48
2018-11-06T09:08:02.865Z,89.42
2018-11-06T09:10:31.197Z,89.07
2018-11-06T09:12:59.541Z,89.55
2018-11-06T09:15:27.881Z,89.46
2018-11-06T09:17:56.241Z,88.62
2018-11-06T09:20:24.624Z,87.95
2018-11-06T09:22:52.939Z,87.46
2018-11-06T09:25:21.272Z,86.65
2018-11-06T09:27:49.597Z,86.67
2018-11-06T09:30:19.030Z,86.85
2018-11-06T09:32:47.335Z,86.29
2018-11-06T09:35:15.932Z,85.38
2018-11-06T09:37:45.010Z,85.14
2018-11-06T09:40:18.657Z,84.18
2018-11-06T09:42:47.037Z,86.07
2018-11-06T09:45:15.519Z,85.60
2018-11-06T09:47:43.843Z,84.65
2018-11-06T09:50:14.064Z,84.19
2018-11-06T09:52:42.992Z,83.92
2018-11-06T09:55:11.365Z,84.37
2018-11-06T09:57:39.720Z,84.13
2018-11-06T10:00:11.285Z,83.67
2018-11-06T10:02:39.600Z,85.23
2018-11-06T10:05:08.600Z,85.77
2018-11-06T10:07:37.259Z,84.54
2018-11-06T10:10:07.560Z,85.92
2018-11-06T10:12:36.133Z,87.30
2018-11-06T10:15:05.236Z,87.84
2018-11-06T10:17:33.568Z,87.18
2018-11-06T10:20:02.084Z,87.57
2018-11-06T10:22:30.416Z,88.15
2018-11-06T10:24:58.735Z,86.88
2018-11-06T10:27:27.172Z,86.74
2018-11-06T10:29:55.512Z,85.56
2018-11-06T10:32:23.828Z,85.05
2018-11-06T10:34:52.197Z,85.04
2018-11-06T10:37:20.640Z,84.93
2018-11-06T10:39:48.956Z,85.67
2018-11-06T10:42:17.352Z,87.44
2018-11-06T10:44:45.682Z,86.37
2018-11-06T10:47:14.025Z,85.63
2018-11-06T10:49:42.383Z,84.38
2018-11-06T10:52:10.705Z,83.63
2018-11-06T10:54:39.039Z,83.24
2018-11-06T10:57:07.412Z,84.29
2018-11-06T10:59:35.976Z,83.52
2018-11-06T11:02:09.964Z,82.75
2018-11-06T11:04:38.288Z,82.07
2018-11-06T11:07:06.645Z,82.40
2018-11-06T11:09:35.000Z,82.77
2018-11-06T11:12:03.321Z,81.83
2018-11-06T11:14:31.639Z,82.77
2018-11-06T11:17:00.260Z,84.18
2018-11-06T11:19:28.601Z,83.96
2018-11-06T11:21:56.946Z,83.78
2018-11-06T11:24:25.317Z,83.22
2018-11-06T11:26:53.717Z,85.14
2018-11-06T11:29:22.048Z,84.82
2018-11-06T11:31:50.588Z,84.14
2018-11-06T11:34:20.925Z,83.50
2018-11-06T11:36:49.821Z,83.65
2018-11-06T11:39:18.131Z,82.86
2018-11-06T11:41:47.511Z,83.03
2018-11-06T11:44:15.803Z,83.17
2018-11-06T11:46:44.148Z,83.43
2018-11-06T11:49:12.447Z,82.72
2018-11-06T11:51:40.760Z,82.22
2018-11-06T11:54:09.059Z,81.25
2018-11-06T11:56:37.371Z,81.07
2018-11-06T11:59:05.827Z,80.71
2018-11-06T12:01:34.173Z,79.89
2018-11-06T12:04:02.471Z,79.40
2018-11-06T12:06:30.891Z,78.02
2018-11-06T12:08:59.210Z,77.75
2018-11-06T12:11:27.531Z,76.95
2018-11-06T12:13:55.831Z,75.68
2018-11-06T12:16:25.146Z,75.62
2018-11-06T12:18:53.480Z,74.56
2018-11-06T12:21:21.836Z,74.61
2018-11-06T12:23:50.164Z,74.51
2018-11-06T12:26:18.522Z,76.22
2018-11-06T12:28:46.901Z,75.96
2018-11-06T12:31:15.245Z,75.84
2018-11-06T12:33:43.628Z,75.69
2018-11-06T12:36:11.988Z,75.82
2018-11-06T12:38:40.351Z,75.52
2018-11-06T12:41:08.680Z,74.96
2018-11-06T12:43:37.086Z,75.72
2018-11-06T12:46:06.037Z,75.91
2018-11-06T12:48:34.400Z,75.42
2018-11-06T12:51:02.741Z,74.57
2018-11-06T12:53:31.100Z,74.58
2018-11-06T12:55:59.442Z,75.12
2018-11-06T12:58:27.808Z,75.32
2018-11-06T13:00:56.141Z,74.79
2018-11-06T13:03:24.563Z,75.05
2018-11-06T13:05:52.853Z,74.02
2018-11-06T13:08:21.716Z,74.77
2018-11-06T13:10:50.061Z,74.93
2018-11-06T13:13:18.404Z,75.78
2018-11-06T13:15:46.832Z,75.46
2018-11-06T13:18:15.104Z,77.92
2018-11-06T13:20:43.469Z,76.41
2018-11-06T13:23:11.790Z,76.36
2018-11-06T13:25:40.198Z,75.56
2018-11-06T13:28:08.536Z,75.57
2018-11-06T13:30:36.997Z,76.04
2018-11-06T13:33:05.537Z,76.11
2018-11-06T13:35:33.900Z,76.33
2018-11-06T13:38:02.241Z,76.23
2018-11-06T13:40:30.600Z,76.47
2018-11-06T13:42:59.077Z,77.39
2018-11-06T13:45:27.510Z,76.98
2018-11-06T13:47:55.704Z,78.43
2018-11-06T13:50:24.082Z,78.44
2018-11-06T13:52:52.421Z,77.96
2018-11-06T13:55:20.777Z,77.16
2018-11-06T13:57:49.305Z,75.88
2018-11-06T14:00:19.913Z,76.41
2018-11-06T14:02:48.456Z,78.67
2018-11-06T14:05:17.316Z,78.85
2018-11-06T14:07:45.692Z,78.62
2018-11-06T14:10:14.022Z,79.59
2018-11-06T14:12:43.129Z,80.49
2018-11-06T14:15:11.457Z,81.24
2018-11-06T14:17:40.016Z,81.86
2018-11-06T14:20:10.692Z,82.18
2018-11-06T14:22:39.331Z,82.73
2018-11-06T14:25:08.289Z,82.81
2018-11-06T14:27:36.871Z,83.63
2018-11-06T14:30:08.277Z,83.87
2018-11-06T14:32:36.648Z,83.69
2018-11-06T14:35:06.579Z,83.87
2018-11-06T14:37:34.997Z,83.74
2018-11-06T14:40:03.385Z,84.11
2018-11-06T14:42:31.784Z,84.13
2018-11-06T14:45:00.105Z,84.49
2018-11-06T14:47:28.471Z,84.68
2018-11-06T14:49:56.817Z,85.10
2018-11-06T14:52:25.165Z,84.67
2018-11-06T14:54:53.500Z,84.48
2018-11-06T14:57:21.871Z,85.10
2018-11-06T14:59:50.205Z,85.91
2018-11-06T15:02:18.564Z,86.87
2018-11-06T15:04:47.236Z,88.01
2018-11-06T15:07:15.624Z,87.19
2018-11-06T15:09:43.944Z,86.25
2018-11-06T15:12:12.277Z,86.48
2018-11-06T15:14:40.584Z,86.69
2018-11-06T15:17:08.912Z,86.00
2018-11-06T15:19:37.299Z,88.31
2018-11-06T15:22:06.043Z,89.28
2018-11-06T15:24:34.473Z,88.69
2018-11-06T15:27:02.833Z,88.50
2018-11-06T15:29:31.161Z,89.14
2018-11-06T15:31:59.510Z,89.30
2018-11-06T15:34:27.845Z,88.75
2018-11-06T15:36:56.161Z,88.01
2018-11-06T15:39:24.557Z,87.95
2018-11-06T15:41:52.931Z,88.35
2018-11-06T15:44:21.135Z,89.16
2018-11-06T15:46:49.571Z,88.61
2018-11-06T15:49:17.934Z,89.33
2018-11-06T15:51:46.265Z,88.75
2018-11-06T15:54:14.624Z,88.34
2018-11-06T15:56:42.977Z,88.18
2018-11-06T15:59:11.297Z,88.11
2018-11-06T16:01:39.670Z,88.81
2018-11-06T16:04:08.000Z,89.10
2018-11-06T16:06:36.329Z,90.39
2018-11-06T16:09:06.275Z,90.44
2018-11-06T16:11:35.075Z,90.40
2018-11-06T16:14:03.386Z,90.07
2018-11-06T16:16:31.706Z,90.34
2018-11-06T16:18:59.995Z,90.17
2018-11-06T16:21:28.314Z,90.03
2018-11-06T16:23:56.670Z,90.25
2018-11-06T16:26:24.936Z,91.11
2018-11-06T16:28:53.233Z,91.34
2018-11-06T16:31:21.653Z,90.99
2018-11-06T16:33:49.992Z,90.83
2018-11-06T16:36:18.388Z,91.79
2018-11-06T16:38:46.744Z,91.35
2018-11-06T16:41:15.080Z,91.39
2018-11-06T16:43:43.392Z,91.28
2018-11-06T16:46:11.827Z,91.23
2018-11-06T16:48:40.160Z,90.72
2018-11-06T16:51:08.483Z,91.26
2018-11-06T16:53:36.832Z,91.21
2018-11-06T16:56:05.596Z,92.14
2018-11-06T16:58:33.915Z,92.29
2018-11-06T17:01:02.421Z,92.11
2018-11-06T17:03:30.574Z,92.35
2018-11-06T17:05:58.912Z,91.88
2018-11-06T17:08:27.270Z,92.60
2018-11-06T17:10:55.617Z,93.08
2018-11-06T17:13:23.977Z,92.91
2018-11-06T17:15:52.334Z,92.70
2018-11-06T17:18:20.680Z,92.81
2018-11-06T17:20:49.034Z,93.03
2018-11-06T17:23:17.405Z,93.49
2018-11-06T17:25:45.782Z,93.02
2018-11-06T17:28:14.108Z,93.12
2018-11-06T17:30:42.445Z,93.19
2018-11-06T17:33:10.797Z,93.18
2018-11-06T17:35:39.165Z,93.05
2018-11-06T17:38:07.688Z,92.54
2018-11-06T17:40:36.036Z,92.57
2018-11-06T17:43:04.378Z,92.74
2018-11-06T17:45:32.852Z,92.16
2018-11-06T17:48:01.112Z,91.65
2018-11-06T17:50:29.473Z,91.88
2018-11-06T17:52:57.841Z,91.81
2018-11-06T17:55:26.205Z,91.24
2018-11-06T17:57:54.536Z,91.78
2018-11-06T18:00:23.998Z,92.00
2018-11-06T18:02:52.539Z,91.87
2018-11-06T18:05:22.459Z,92.47
2018-11-06T18:07:50.896Z,91.47
2018-11-06T18:10:20.154Z,92.11
2018-11-06T18:12:48.446Z,91.45
2018-11-06T18:15:16.787Z,91.99
2018-11-06T18:17:45.374Z,91.61
2018-11-06T18:20:14.543Z,91.41
2018-11-06T18:22:43.668Z,91.06
2018-11-06T18:25:12.913Z,91.75
2018-11-06T18:27:41.554Z,90.62
2018-11-06T18:30:12.911Z,91.59
2018-11-06T18:32:41.256Z,92.32
2018-11-06T18:35:10.868Z,92.72
2018-11-06T18:37:39.455Z,92.24
2018-11-06T18:40:10.190Z,91.97
2018-11-06T18:42:38.561Z,92.49
2018-11-06T18:45:06.953Z,92.13
2018-11-06T18:47:35.783Z,92.41
2018-11-06T18:50:04.743Z,92.89
2018-11-06T18:52:33.073Z,92.59
2018-11-06T18:55:01.430Z,91.85
2018-11-06T18:57:29.912Z,91.20
2018-11-06T18:59:58.209Z,91.27
2018-11-06T19:02:26.642Z,91.16
2018-11-06T19:04:55.001Z,90.75
2018-11-06T19:07:23.329Z,91.65
2018-11-06T19:09:51.677Z,92.30
2018-11-06T19:12:20.012Z,91.95
2018-11-06T19:14:48.629Z,91.77
2018-11-06T19:17:16.986Z,91.40
2018-11-06T19:19:45.349Z,91.47
2018-11-06T19:22:13.705Z,91.98
2018-11-06T19:24:42.089Z,91.36
2018-11-06T19:27:10.440Z,90.65
2018-11-06T19:29:38.823Z,91.15
2018-11-06T19:32:07.157Z,90.95
2018-11-06T19:34:35.502Z,91.04
2018-11-06T19:37:03.824Z,91.07
2018-11-06T19:40:56.581Z,90.56
2018-11-06T19:43:24.921Z,90.95
2018-11-06T19:45:53.265Z,91.07
2018-11-06T19:48:21.628Z,91.03
2018-11-06T19:50:49.961Z,90.54
2018-11-06T19:53:18.383Z,90.96
2018-11-06T19:55:46.653Z,90.69
2018-11-06T19:58:14.984Z,90.12
2018-11-06T20:00:43.377Z,89.83
2018-11-06T20:03:11.673Z,89.20
2018-11-06T20:05:40.084Z,89.26
2018-11-06T20:08:08.334Z,89.50
2018-11-06T20:10:36.704Z,89.12
2018-11-06T20:13:05.577Z,89.12
2018-11-06T20:15:33.877Z,88.91
2018-11-06T20:18:02.275Z,89.02
2018-11-06T20:20:30.587Z,88.92
2018-11-06T20:22:58.921Z,88.58
2018-11-06T20:25:27.276Z,88.32
2018-11-06T20:27:55.666Z,89.00
2018-11-06T20:30:25.360Z,88.31
2018-11-06T20:32:53.802Z,88.92
2018-11-06T20:35:22.196Z,89.38
2018-11-06T20:37:50.568Z,89.68
2018-11-06T20:40:20.440Z,89.27
2018-11-06T20:42:49.058Z,89.22
2018-11-06T20:45:18.317Z,89.16
2018-11-06T20:47:46.700Z,87.64
2018-11-06T20:50:20.585Z,87.40
2018-11-06T20:52:49.117Z,88.60
2018-11-06T20:55:18.060Z,88.86
2018-11-06T20:57:46.346Z,88.57
2018-11-06T21:00:21.130Z,88.85
2018-11-06T21:02:50.284Z,88.86
2018-11-06T21:05:18.636Z,88.60
2018-11-06T21:07:47.476Z,87.77
2018-11-06T21:10:17.032Z,87.67
2018-11-06T21:12:45.631Z,88.01
2018-11-06T21:15:15.034Z,88.30
2018-11-06T21:17:43.533Z,89.21
2018-11-06T21:20:13.058Z,88.80
2018-11-06T21:22:41.373Z,88.95
2018-11-06T21:25:10.135Z,88.40
2018-11-06T21:27:39.184Z,89.06
2018-11-06T21:30:09.785Z,89.29
2018-11-06T21:32:38.488Z,89.18
2018-11-06T21:35:07.285Z,89.63
2018-11-06T21:37:35.713Z,89.85
2018-11-06T21:40:04.085Z,89.89
2018-11-06T21:42:32.429Z,89.94
2018-11-06T21:45:00.768Z,89.43
2018-11-06T21:47:29.120Z,88.93
2018-11-06T21:49:57.453Z,89.48
2018-11-06T21:52:25.940Z,90.16
2018-11-06T21:54:54.276Z,90.75
2018-11-06T21:57:22.625Z,90.27
2018-11-06T21:59:51.204Z,89.86
2018-11-06T22:02:19.601Z,90.18
2018-11-06T22:04:47.932Z,89.66
2018-11-06T22:07:16.304Z,89.51
2018-11-06T22:09:44.628Z,89.34
2018-11-06T22:12:13.042Z,90.11
2018-11-06T22:14:41.335Z,90.06
2018-11-06T22:17:10.051Z,90.21
2018-11-06T22:19:38.363Z,89.98
2018-11-06T22:22:06.738Z,89.74
2018-11-06T22:24:35.076Z,90.50
2018-11-06T22:27:03.414Z,90.05
2018-11-06T22:29:31.756Z,89.87
2018-11-06T22:32:00.109Z,89.79
2018-11-06T22:34:28.461Z,90.26
2018-11-06T22:36:56.808Z,90.47
2018-11-06T22:39:25.157Z,89.99
2018-11-06T22:41:53.493Z,89.98
2018-11-06T22:44:21.889Z,90.17
2018-11-06T22:46:50.218Z,90.39
2018-11-06T22:49:18.545Z,91.02
2018-11-06T22:51:46.863Z,91.12
2018-11-06T22:54:15.484Z,90.83
2018-11-06T22:56:43.800Z,91.20
2018-11-06T22:59:12.137Z,90.95
2018-11-06T23:01:40.464Z,92.06
2018-11-06T23:04:08.796Z,91.81
2018-11-06T23:06:37.218Z,91.57
2018-11-06T23:09:08.461Z,91.40
2018-11-06T23:11:36.977Z,91.61
2018-11-06T23:14:05.441Z,92.03
2018-11-06T23:16:34.020Z,91.41
2018-11-06T23:19:02.375Z,91.24
2018-11-06T23:21:30.704Z,91.78
2018-11-06T23:23:59.228Z,91.98
2018-11-06T23:26:27.601Z,91.49
2018-11-06T23:28:56.175Z,91.47
2018-11-06T23:31:24.578Z,91.37
2018-11-06T23:33:52.889Z,90.97
2018-11-06T23:36:21.200Z,91.35
2018-11-06T23:38:49.600Z,91.34
2018-11-06T23:41:17.914Z,91.02
2018-11-06T23:43:46.303Z,90.70
2018-11-06T23:46:14.607Z,90.96
2018-11-06T23:48:42.923Z,91.59
2018-11-06T23:51:11.263Z,91.87
2018-11-06T23:53:39.568Z,91.63
2018-11-06T23:56:07.915Z,91.79
2018-11-06T23:58:36.203Z,90.74
